AUL529 ULMM-UMKK
Flight info
| Callsign | AUL529 |
|---|---|
| Flight time | 2h 54m |
| Altitude | 37000 |
| Route | N0460F370 ASGOR T693 PILAN M856 MOGPI/N0451F380 L870 UMODI M60 ATLUM DCT PISIS DCT ARANS DCT PIDIN DCT PISIM DCT PIRUX DCT PIVAX DCT GARSO DCT AGONA N5 TURIP |
| Aircraft | B738/M-VGDW/C |
Departure
| Time | 2026-05-06 11:08 |
|---|---|
| Airport | Emperor Nicholas II Murmansk Airport (ULMM) |
Arrival
| Time | 2026-05-06 14:03 |
|---|---|
| Airport | Khrabrovo Airport (UMKK) |
| Time | Latitude | Longitude | Altitude | Speed | Heading |
|---|---|---|---|---|---|
| 2026-05-06 10:53 | 68.78491 | 32.75484 | 253 ft | 0 kts | 146° |
| 2026-05-06 11:03 | 68.78479 | 32.75507 | 253 ft | 5 kts | 144° |
| 2026-05-06 11:03 | 68.78435 | 32.75523 | 253 ft | 9 kts | 211° |
| 2026-05-06 11:04 | 68.78387 | 32.75352 | 253 ft | 13 kts | 235° |
| 2026-05-06 11:04 | 68.78338 | 32.75155 | 253 ft | 12 kts | 235° |
| 2026-05-06 11:04 | 68.78281 | 32.74988 | 255 ft | 12 kts | 195° |
| 2026-05-06 11:04 | 68.78193 | 32.75101 | 253 ft | 18 kts | 146° |
| 2026-05-06 11:05 | 68.78074 | 32.75321 | 251 ft | 22 kts | 147° |
| 2026-05-06 11:05 | 68.77944 | 32.75554 | 253 ft | 22 kts | 147° |
| 2026-05-06 11:05 | 68.77819 | 32.75786 | 252 ft | 21 kts | 145° |
| 2026-05-06 11:05 | 68.77697 | 32.76016 | 250 ft | 22 kts | 146° |
| 2026-05-06 11:06 | 68.77572 | 32.76252 | 252 ft | 21 kts | 146° |
| 2026-05-06 11:06 | 68.77465 | 32.76460 | 252 ft | 16 kts | 132° |
| 2026-05-06 11:06 | 68.77443 | 32.76756 | 252 ft | 16 kts | 88° |
| 2026-05-06 11:06 | 68.77428 | 32.77042 | 253 ft | 16 kts | 132° |
| 2026-05-06 11:07 | 68.77322 | 32.77105 | 253 ft | 17 kts | 218° |
| 2026-05-06 11:07 | 68.77296 | 32.76797 | 251 ft | 18 kts | 295° |
| 2026-05-06 11:07 | 68.77440 | 32.76492 | 252 ft | 54 kts | 326° |
| 2026-05-06 11:07 | 68.77967 | 32.75518 | 253 ft | 126 kts | 326° |
| 2026-05-06 11:08 | 68.78847 | 32.73865 | 428 ft | 168 kts | 324° |
| 2026-05-06 11:08 | 68.79822 | 32.71988 | 1352 ft | 170 kts | 326° |
| 2026-05-06 11:08 | 68.80746 | 32.70040 | 2364 ft | 173 kts | 313° |
| 2026-05-06 11:08 | 68.81155 | 32.66719 | 2664 ft | 203 kts | 267° |
| 2026-05-06 11:09 | 68.80502 | 32.63036 | 2920 ft | 230 kts | 227° |
| 2026-05-06 11:09 | 68.79103 | 32.60663 | 3420 ft | 242 kts | 200° |
| 2026-05-06 11:09 | 68.77367 | 32.60269 | 3741 ft | 264 kts | 169° |
| 2026-05-06 11:09 | 68.75558 | 32.61509 | 4469 ft | 270 kts | 166° |
| 2026-05-06 11:10 | 68.73730 | 32.62814 | 5333 ft | 272 kts | 166° |
| 2026-05-06 11:10 | 68.71890 | 32.64088 | 6184 ft | 274 kts | 167° |
| 2026-05-06 11:10 | 68.70016 | 32.65340 | 6907 ft | 280 kts | 168° |
| 2026-05-06 11:10 | 68.68120 | 32.66568 | 7785 ft | 277 kts | 168° |
| 2026-05-06 11:11 | 68.66243 | 32.67760 | 8657 ft | 278 kts | 168° |
| 2026-05-06 11:11 | 68.64346 | 32.68947 | 9391 ft | 282 kts | 168° |
| 2026-05-06 11:11 | 68.62408 | 32.70147 | 10038 ft | 289 kts | 168° |
| 2026-05-06 11:11 | 68.60373 | 32.71397 | 10257 ft | 311 kts | 169° |
| 2026-05-06 11:12 | 68.58187 | 32.72737 | 10463 ft | 332 kts | 168° |
| 2026-05-06 11:12 | 68.55858 | 32.74161 | 10646 ft | 353 kts | 168° |
| 2026-05-06 11:12 | 68.53392 | 32.75662 | 10810 ft | 372 kts | 168° |
| 2026-05-06 11:12 | 68.50798 | 32.76734 | 11187 ft | 382 kts | 179° |
| 2026-05-06 11:13 | 68.48120 | 32.76486 | 11713 ft | 387 kts | 185° |
| 2026-05-06 11:13 | 68.45421 | 32.76037 | 12290 ft | 392 kts | 184° |
| 2026-05-06 11:13 | 68.42680 | 32.75715 | 12906 ft | 396 kts | 184° |
| 2026-05-06 11:13 | 68.39919 | 32.75556 | 13573 ft | 398 kts | 182° |
| 2026-05-06 11:14 | 68.37132 | 32.75587 | 14120 ft | 402 kts | 181° |
| 2026-05-06 11:14 | 68.34357 | 32.75676 | 14635 ft | 406 kts | 181° |
| 2026-05-06 11:14 | 68.31522 | 32.75772 | 15204 ft | 409 kts | 181° |
| 2026-05-06 11:14 | 68.28670 | 32.75852 | 15766 ft | 411 kts | 181° |
| 2026-05-06 11:15 | 68.25761 | 32.75916 | 16315 ft | 414 kts | 181° |
| 2026-05-06 11:15 | 68.22906 | 32.75965 | 16828 ft | 417 kts | 181° |
| 2026-05-06 11:15 | 68.19993 | 32.76008 | 17381 ft | 420 kts | 181° |
| 2026-05-06 11:15 | 68.17052 | 32.76047 | 17916 ft | 423 kts | 181° |
| 2026-05-06 11:16 | 68.14098 | 32.76086 | 18382 ft | 426 kts | 181° |
| 2026-05-06 11:16 | 68.11123 | 32.76126 | 18886 ft | 427 kts | 181° |
| 2026-05-06 11:16 | 68.08144 | 32.76166 | 19376 ft | 429 kts | 181° |
| 2026-05-06 11:16 | 68.05153 | 32.76207 | 19843 ft | 431 kts | 181° |
| 2026-05-06 11:17 | 68.02148 | 32.76247 | 20287 ft | 433 kts | 181° |
| 2026-05-06 11:17 | 67.99128 | 32.76288 | 20734 ft | 435 kts | 182° |
| 2026-05-06 11:17 | 67.96095 | 32.76350 | 21177 ft | 437 kts | 181° |
| 2026-05-06 11:17 | 67.93048 | 32.76463 | 21590 ft | 439 kts | 181° |
| 2026-05-06 11:18 | 67.90027 | 32.76596 | 21998 ft | 441 kts | 181° |
| 2026-05-06 11:18 | 67.86952 | 32.76734 | 22390 ft | 443 kts | 181° |
| 2026-05-06 11:18 | 67.83859 | 32.76871 | 22728 ft | 446 kts | 181° |
| 2026-05-06 11:18 | 67.80745 | 32.77003 | 23096 ft | 448 kts | 181° |
| 2026-05-06 11:19 | 67.77620 | 32.77131 | 23468 ft | 450 kts | 181° |
| 2026-05-06 11:19 | 67.74489 | 32.77258 | 23770 ft | 452 kts | 181° |
| 2026-05-06 11:19 | 67.71339 | 32.77383 | 24053 ft | 454 kts | 181° |
| 2026-05-06 11:19 | 67.68174 | 32.77508 | 24328 ft | 456 kts | 181° |
| 2026-05-06 11:20 | 67.64994 | 32.77634 | 24603 ft | 458 kts | 181° |
| 2026-05-06 11:20 | 67.61800 | 32.77760 | 24880 ft | 460 kts | 181° |
| 2026-05-06 11:20 | 67.58592 | 32.77886 | 25137 ft | 462 kts | 181° |
| 2026-05-06 11:20 | 67.55375 | 32.78012 | 25449 ft | 462 kts | 181° |
| 2026-05-06 11:21 | 67.52163 | 32.78140 | 25843 ft | 461 kts | 181° |
| 2026-05-06 11:21 | 67.48961 | 32.78266 | 26258 ft | 459 kts | 181° |
| 2026-05-06 11:21 | 67.45767 | 32.78390 | 26629 ft | 459 kts | 181° |
| 2026-05-06 11:21 | 67.42579 | 32.78566 | 26966 ft | 459 kts | 180° |
| 2026-05-06 11:22 | 67.39385 | 32.78818 | 27339 ft | 459 kts | 180° |
| 2026-05-06 11:22 | 67.36196 | 32.79101 | 27737 ft | 458 kts | 180° |
| 2026-05-06 11:22 | 67.33007 | 32.79388 | 28125 ft | 457 kts | 180° |
| 2026-05-06 11:22 | 67.29828 | 32.79668 | 28481 ft | 457 kts | 180° |
| 2026-05-06 11:23 | 67.26656 | 32.79939 | 28799 ft | 457 kts | 180° |
| 2026-05-06 11:23 | 67.23467 | 32.80203 | 29141 ft | 457 kts | 180° |
| 2026-05-06 11:23 | 67.20288 | 32.80463 | 29510 ft | 457 kts | 180° |
| 2026-05-06 11:23 | 67.17115 | 32.80719 | 29874 ft | 456 kts | 180° |
| 2026-05-06 11:24 | 67.13947 | 32.80974 | 30123 ft | 456 kts | 180° |
| 2026-05-06 11:24 | 67.10774 | 32.81228 | 30358 ft | 457 kts | 180° |
| 2026-05-06 11:24 | 67.07597 | 32.81481 | 30616 ft | 457 kts | 180° |
| 2026-05-06 11:24 | 67.04422 | 32.81735 | 30878 ft | 456 kts | 181° |
| 2026-05-06 11:25 | 67.01249 | 32.81988 | 31141 ft | 456 kts | 181° |
| 2026-05-06 11:25 | 66.98118 | 32.82237 | 31385 ft | 456 kts | 181° |
| 2026-05-06 11:25 | 66.94935 | 32.82490 | 31622 ft | 457 kts | 181° |
| 2026-05-06 11:25 | 66.91760 | 32.82741 | 31869 ft | 456 kts | 181° |
| 2026-05-06 11:26 | 66.88585 | 32.82992 | 32106 ft | 456 kts | 181° |
| 2026-05-06 11:26 | 66.85403 | 32.83242 | 32331 ft | 457 kts | 181° |
| 2026-05-06 11:26 | 66.82233 | 32.83491 | 32559 ft | 457 kts | 181° |
| 2026-05-06 11:26 | 66.79056 | 32.83740 | 32776 ft | 457 kts | 181° |
| 2026-05-06 11:27 | 66.75870 | 32.83989 | 32976 ft | 457 kts | 181° |
| 2026-05-06 11:27 | 66.72688 | 32.84237 | 33197 ft | 457 kts | 181° |
| 2026-05-06 11:27 | 66.69506 | 32.84491 | 33410 ft | 458 kts | 181° |
| 2026-05-06 11:27 | 66.66316 | 32.84808 | 33615 ft | 458 kts | 181° |
| 2026-05-06 11:28 | 66.63172 | 32.85156 | 33808 ft | 458 kts | 181° |
| 2026-05-06 11:28 | 66.59984 | 32.85518 | 33973 ft | 458 kts | 181° |
| 2026-05-06 11:28 | 66.56763 | 32.85880 | 34153 ft | 458 kts | 181° |
| 2026-05-06 11:28 | 66.53612 | 32.86225 | 34319 ft | 458 kts | 181° |
| 2026-05-06 11:29 | 66.50426 | 32.86568 | 34483 ft | 458 kts | 181° |
| 2026-05-06 11:29 | 66.47239 | 32.86907 | 34650 ft | 458 kts | 181° |
| 2026-05-06 11:29 | 66.44053 | 32.87244 | 34818 ft | 458 kts | 181° |
| 2026-05-06 11:29 | 66.40867 | 32.87581 | 34953 ft | 458 kts | 181° |
| 2026-05-06 11:30 | 66.37680 | 32.87908 | 35101 ft | 458 kts | 181° |
| 2026-05-06 11:30 | 66.34495 | 32.88150 | 35271 ft | 458 kts | 182° |
| 2026-05-06 11:30 | 66.31312 | 32.88336 | 35433 ft | 457 kts | 182° |
| 2026-05-06 11:30 | 66.28130 | 32.88504 | 35572 ft | 457 kts | 182° |
| 2026-05-06 11:31 | 66.24946 | 32.88672 | 35714 ft | 458 kts | 182° |
| 2026-05-06 11:31 | 66.21761 | 32.88849 | 35843 ft | 458 kts | 182° |
| 2026-05-06 11:31 | 66.18577 | 32.89033 | 35996 ft | 457 kts | 182° |
| 2026-05-06 11:31 | 66.15395 | 32.89222 | 36112 ft | 457 kts | 182° |
| 2026-05-06 11:32 | 66.12212 | 32.89413 | 36253 ft | 457 kts | 182° |
| 2026-05-06 11:32 | 66.09032 | 32.89605 | 36397 ft | 457 kts | 182° |
| 2026-05-06 11:32 | 66.05853 | 32.89797 | 36524 ft | 457 kts | 182° |
| 2026-05-06 11:32 | 66.02674 | 32.89988 | 36645 ft | 457 kts | 182° |
| 2026-05-06 11:33 | 65.99507 | 32.90178 | 36752 ft | 454 kts | 182° |
| 2026-05-06 11:33 | 65.93203 | 32.90554 | 36778 ft | 453 kts | 182° |
| 2026-05-06 11:34 | 65.86903 | 32.90924 | 36787 ft | 453 kts | 182° |
| 2026-05-06 11:34 | 65.80631 | 32.91293 | 36784 ft | 454 kts | 182° |
| 2026-05-06 11:35 | 65.74318 | 32.91650 | 36783 ft | 453 kts | 184° |
| 2026-05-06 11:35 | 65.68025 | 32.91453 | 36786 ft | 452 kts | 185° |
| 2026-05-06 11:36 | 65.61731 | 32.91006 | 36771 ft | 452 kts | 186° |
| 2026-05-06 11:36 | 65.55440 | 32.90606 | 36774 ft | 452 kts | 186° |
| 2026-05-06 11:37 | 65.49149 | 32.90267 | 36780 ft | 452 kts | 186° |
| 2026-05-06 11:37 | 65.42860 | 32.89954 | 36787 ft | 452 kts | 186° |
| 2026-05-06 11:38 | 65.36608 | 32.89646 | 36789 ft | 452 kts | 186° |
| 2026-05-06 11:38 | 65.30289 | 32.89335 | 36791 ft | 451 kts | 186° |
| 2026-05-06 11:39 | 65.24045 | 32.89029 | 36793 ft | 450 kts | 186° |
| 2026-05-06 11:39 | 65.17776 | 32.88721 | 36792 ft | 450 kts | 186° |
| 2026-05-06 11:40 | 65.11514 | 32.88415 | 36796 ft | 450 kts | 186° |
| 2026-05-06 11:40 | 65.05253 | 32.88111 | 36791 ft | 450 kts | 186° |
| 2026-05-06 11:41 | 64.99002 | 32.87809 | 36793 ft | 450 kts | 186° |
| 2026-05-06 11:41 | 64.92738 | 32.87507 | 36785 ft | 449 kts | 186° |
| 2026-05-06 11:42 | 64.87541 | 32.87259 | 36786 ft | 449 kts | 186° |
| 2026-05-06 11:42 | 64.81296 | 32.86961 | 36809 ft | 449 kts | 186° |
| 2026-05-06 11:43 | 64.75042 | 32.86663 | 36798 ft | 450 kts | 186° |
| 2026-05-06 11:43 | 64.68787 | 32.86367 | 36788 ft | 450 kts | 186° |
| 2026-05-06 11:44 | 64.59401 | 32.85926 | 36800 ft | 450 kts | 186° |
| 2026-05-06 11:44 | 64.53143 | 32.85634 | 36792 ft | 450 kts | 186° |
| 2026-05-06 11:45 | 64.46895 | 32.85345 | 36791 ft | 449 kts | 187° |
| 2026-05-06 11:45 | 64.40642 | 32.85055 | 36793 ft | 449 kts | 186° |
| 2026-05-06 11:46 | 64.34391 | 32.84766 | 36803 ft | 449 kts | 187° |
| 2026-05-06 11:46 | 64.28140 | 32.84480 | 36798 ft | 449 kts | 187° |
| 2026-05-06 11:47 | 64.21933 | 32.84196 | 36803 ft | 449 kts | 187° |
| 2026-05-06 11:47 | 64.15684 | 32.83912 | 36797 ft | 449 kts | 187° |
| 2026-05-06 11:48 | 64.09437 | 32.83629 | 36804 ft | 449 kts | 187° |
| 2026-05-06 11:48 | 64.03192 | 32.83348 | 36799 ft | 449 kts | 187° |
| 2026-05-06 11:49 | 63.96947 | 32.83068 | 36804 ft | 449 kts | 187° |
| 2026-05-06 11:49 | 63.90705 | 32.82789 | 36807 ft | 449 kts | 187° |
| 2026-05-06 11:50 | 63.84463 | 32.82511 | 36804 ft | 448 kts | 187° |
| 2026-05-06 11:50 | 63.78224 | 32.82235 | 36779 ft | 448 kts | 187° |
| 2026-05-06 11:51 | 63.71999 | 32.81952 | 36797 ft | 447 kts | 188° |
| 2026-05-06 11:51 | 63.65815 | 32.81100 | 36812 ft | 444 kts | 190° |
| 2026-05-06 11:52 | 63.59648 | 32.80080 | 36807 ft | 445 kts | 189° |
| 2026-05-06 11:52 | 63.53498 | 32.79179 | 36809 ft | 445 kts | 189° |
| 2026-05-06 11:53 | 63.47295 | 32.78387 | 36814 ft | 446 kts | 189° |
| 2026-05-06 11:53 | 63.41091 | 32.77673 | 36812 ft | 446 kts | 189° |
| 2026-05-06 11:54 | 63.34888 | 32.76951 | 36825 ft | 446 kts | 189° |
| 2026-05-06 11:54 | 63.28686 | 32.76221 | 36815 ft | 446 kts | 189° |
| 2026-05-06 11:55 | 63.22486 | 32.75489 | 36834 ft | 447 kts | 189° |
| 2026-05-06 11:55 | 63.16277 | 32.74761 | 36814 ft | 446 kts | 189° |
| 2026-05-06 11:56 | 63.10074 | 32.74036 | 36795 ft | 446 kts | 189° |
| 2026-05-06 11:56 | 63.03915 | 32.73320 | 36823 ft | 445 kts | 189° |
| 2026-05-06 11:57 | 62.97719 | 32.72695 | 36826 ft | 447 kts | 187° |
| 2026-05-06 11:57 | 62.91492 | 32.72637 | 36842 ft | 447 kts | 186° |
| 2026-05-06 11:58 | 62.85269 | 32.72574 | 36846 ft | 447 kts | 187° |
| 2026-05-06 11:58 | 62.79057 | 32.72359 | 36848 ft | 446 kts | 188° |
| 2026-05-06 11:59 | 62.72850 | 32.71921 | 36819 ft | 445 kts | 189° |
| 2026-05-06 11:59 | 62.66665 | 32.71464 | 36846 ft | 445 kts | 189° |
| 2026-05-06 12:00 | 62.60470 | 32.71034 | 36822 ft | 445 kts | 189° |
| 2026-05-06 12:00 | 62.54281 | 32.70622 | 36853 ft | 445 kts | 189° |
| 2026-05-06 12:01 | 62.48092 | 32.70214 | 36867 ft | 445 kts | 189° |
| 2026-05-06 12:01 | 62.41899 | 32.69807 | 36870 ft | 445 kts | 189° |
| 2026-05-06 12:02 | 62.35711 | 32.69402 | 36868 ft | 445 kts | 189° |
| 2026-05-06 12:02 | 62.29511 | 32.68998 | 36873 ft | 445 kts | 189° |
| 2026-05-06 12:03 | 62.23324 | 32.68596 | 36879 ft | 445 kts | 189° |
| 2026-05-06 12:03 | 62.17123 | 32.68195 | 36881 ft | 445 kts | 189° |
| 2026-05-06 12:04 | 62.10935 | 32.67796 | 36893 ft | 445 kts | 189° |
| 2026-05-06 12:04 | 62.04742 | 32.67399 | 36841 ft | 445 kts | 189° |
| 2026-05-06 12:05 | 61.98566 | 32.67006 | 36892 ft | 443 kts | 189° |
| 2026-05-06 12:05 | 61.92446 | 32.66615 | 36904 ft | 443 kts | 189° |
| 2026-05-06 12:06 | 61.86289 | 32.66220 | 36900 ft | 442 kts | 190° |
| 2026-05-06 12:06 | 61.80148 | 32.65766 | 36913 ft | 442 kts | 190° |
| 2026-05-06 12:07 | 61.74005 | 32.65292 | 36911 ft | 442 kts | 190° |
| 2026-05-06 12:07 | 61.67865 | 32.64826 | 36893 ft | 441 kts | 190° |
| 2026-05-06 12:08 | 61.61734 | 32.64367 | 36912 ft | 441 kts | 190° |
| 2026-05-06 12:08 | 61.55605 | 32.63911 | 36928 ft | 441 kts | 190° |
| 2026-05-06 12:09 | 61.49456 | 32.63455 | 36936 ft | 442 kts | 190° |
| 2026-05-06 12:09 | 61.43293 | 32.63000 | 36903 ft | 443 kts | 190° |
| 2026-05-06 12:10 | 61.37133 | 32.62548 | 36930 ft | 443 kts | 190° |
| 2026-05-06 12:10 | 61.30965 | 32.62097 | 36938 ft | 444 kts | 191° |
| 2026-05-06 12:11 | 61.24802 | 32.61599 | 36947 ft | 443 kts | 192° |
| 2026-05-06 12:11 | 61.18660 | 32.60735 | 36952 ft | 442 kts | 193° |
| 2026-05-06 12:12 | 61.12518 | 32.59819 | 36957 ft | 443 kts | 192° |
| 2026-05-06 12:12 | 61.06410 | 32.58964 | 36958 ft | 443 kts | 192° |
| 2026-05-06 12:13 | 61.00258 | 32.58123 | 36923 ft | 443 kts | 192° |
| 2026-05-06 12:13 | 60.94134 | 32.57272 | 36953 ft | 441 kts | 193° |
| 2026-05-06 12:14 | 60.88015 | 32.56384 | 36966 ft | 440 kts | 193° |
| 2026-05-06 12:14 | 60.81927 | 32.55505 | 36965 ft | 438 kts | 193° |
| 2026-05-06 12:15 | 60.76160 | 32.54680 | 36966 ft | 437 kts | 193° |
| 2026-05-06 12:15 | 60.70302 | 32.53250 | 36962 ft | 425 kts | 204° |
| 2026-05-06 12:16 | 60.64650 | 32.49889 | 36976 ft | 422 kts | 204° |
| 2026-05-06 12:16 | 60.59003 | 32.46545 | 36981 ft | 423 kts | 204° |
| 2026-05-06 12:17 | 60.53336 | 32.43261 | 36981 ft | 424 kts | 204° |
| 2026-05-06 12:17 | 60.47656 | 32.40003 | 36978 ft | 425 kts | 204° |
| 2026-05-06 12:18 | 60.41963 | 32.36753 | 36977 ft | 425 kts | 204° |
| 2026-05-06 12:18 | 60.36261 | 32.33508 | 36977 ft | 426 kts | 204° |
| 2026-05-06 12:19 | 60.30591 | 32.30289 | 36983 ft | 426 kts | 204° |
| 2026-05-06 12:19 | 60.24921 | 32.26851 | 36963 ft | 418 kts | 214° |
| 2026-05-06 12:20 | 60.22559 | 32.23710 | 37007 ft | 402 kts | 227° |
| 2026-05-06 12:20 | 60.20648 | 32.19704 | 36975 ft | 395 kts | 237° |
| 2026-05-06 12:20 | 60.19223 | 32.15044 | 36972 ft | 389 kts | 248° |
| 2026-05-06 12:20 | 60.18165 | 32.10072 | 36996 ft | 388 kts | 250° |
| 2026-05-06 12:21 | 60.16149 | 32.00001 | 36980 ft | 388 kts | 250° |
| 2026-05-06 12:21 | 60.14091 | 31.89973 | 36972 ft | 388 kts | 250° |
| 2026-05-06 12:22 | 60.11993 | 31.79988 | 36977 ft | 388 kts | 250° |
| 2026-05-06 12:22 | 60.09898 | 31.70009 | 36979 ft | 388 kts | 250° |
| 2026-05-06 12:23 | 60.07806 | 31.60023 | 36976 ft | 388 kts | 250° |
| 2026-05-06 12:23 | 60.05710 | 31.50064 | 36980 ft | 388 kts | 250° |
| 2026-05-06 12:24 | 60.03720 | 31.40047 | 36981 ft | 386 kts | 253° |
| 2026-05-06 12:24 | 60.02077 | 31.29826 | 36993 ft | 386 kts | 254° |
| 2026-05-06 12:25 | 60.00449 | 31.19678 | 36975 ft | 385 kts | 254° |
| 2026-05-06 12:25 | 59.98795 | 31.09500 | 36981 ft | 385 kts | 253° |
| 2026-05-06 12:26 | 59.97130 | 30.99351 | 36985 ft | 384 kts | 253° |
| 2026-05-06 12:26 | 59.95457 | 30.89219 | 36986 ft | 384 kts | 253° |
| 2026-05-06 12:27 | 59.93778 | 30.79100 | 36990 ft | 384 kts | 253° |
| 2026-05-06 12:27 | 59.92090 | 30.68978 | 36994 ft | 384 kts | 253° |
| 2026-05-06 12:28 | 59.90396 | 30.58888 | 36995 ft | 384 kts | 253° |
| 2026-05-06 12:28 | 59.88686 | 30.48779 | 36994 ft | 385 kts | 253° |
| 2026-05-06 12:29 | 59.86974 | 30.38716 | 36993 ft | 383 kts | 253° |
| 2026-05-06 12:29 | 59.85547 | 30.30357 | 37015 ft | 384 kts | 253° |
| 2026-05-06 12:30 | 59.83824 | 30.20296 | 37001 ft | 384 kts | 253° |
| 2026-05-06 12:30 | 59.81810 | 30.08629 | 36990 ft | 384 kts | 253° |
| 2026-05-06 12:31 | 59.80363 | 30.00235 | 36998 ft | 384 kts | 253° |
| 2026-05-06 12:31 | 59.78631 | 29.90217 | 37008 ft | 383 kts | 253° |
| 2026-05-06 12:32 | 59.76894 | 29.80218 | 37014 ft | 383 kts | 252° |
| 2026-05-06 12:32 | 59.75152 | 29.70236 | 37008 ft | 383 kts | 252° |
| 2026-05-06 12:33 | 59.73413 | 29.60341 | 36998 ft | 382 kts | 253° |
| 2026-05-06 12:33 | 59.72353 | 29.50099 | 37009 ft | 381 kts | 264° |
| 2026-05-06 12:34 | 59.72437 | 29.39582 | 37056 ft | 383 kts | 271° |
| 2026-05-06 12:34 | 59.72760 | 29.29029 | 37028 ft | 384 kts | 271° |
| 2026-05-06 12:35 | 59.73060 | 29.18435 | 37022 ft | 385 kts | 271° |
| 2026-05-06 12:35 | 59.73343 | 29.07840 | 37025 ft | 385 kts | 271° |
| 2026-05-06 12:36 | 59.73618 | 28.97232 | 37030 ft | 385 kts | 271° |
| 2026-05-06 12:36 | 59.73899 | 28.86619 | 37027 ft | 385 kts | 271° |
| 2026-05-06 12:37 | 59.74175 | 28.76004 | 37034 ft | 385 kts | 271° |
| 2026-05-06 12:37 | 59.74441 | 28.65387 | 37054 ft | 386 kts | 270° |
| 2026-05-06 12:38 | 59.74699 | 28.54754 | 37041 ft | 386 kts | 270° |
| 2026-05-06 12:38 | 59.74948 | 28.44110 | 37036 ft | 386 kts | 270° |
| 2026-05-06 12:39 | 59.75187 | 28.33561 | 37031 ft | 386 kts | 270° |
| 2026-05-06 12:39 | 59.75418 | 28.22951 | 37028 ft | 384 kts | 270° |
| 2026-05-06 12:40 | 59.75625 | 28.13160 | 37027 ft | 385 kts | 270° |
| 2026-05-06 12:40 | 59.75840 | 28.02543 | 37025 ft | 385 kts | 270° |
| 2026-05-06 12:41 | 59.76047 | 27.91924 | 37055 ft | 386 kts | 270° |
| 2026-05-06 12:41 | 59.76247 | 27.81258 | 37033 ft | 387 kts | 269° |
| 2026-05-06 12:42 | 59.76884 | 27.70665 | 37035 ft | 393 kts | 283° |
| 2026-05-06 12:42 | 59.79111 | 27.60732 | 37025 ft | 403 kts | 296° |
| 2026-05-06 12:43 | 59.82676 | 27.51918 | 37027 ft | 411 kts | 303° |
| 2026-05-06 12:43 | 59.86374 | 27.43260 | 37030 ft | 411 kts | 302° |
| 2026-05-06 12:44 | 59.90039 | 27.34544 | 37055 ft | 410 kts | 302° |
| 2026-05-06 12:44 | 59.93684 | 27.25775 | 37034 ft | 411 kts | 302° |
| 2026-05-06 12:45 | 59.97324 | 27.16976 | 37022 ft | 410 kts | 302° |
| 2026-05-06 12:46 | 60.02629 | 27.03705 | 36993 ft | 401 kts | 291° |
| 2026-05-06 12:46 | 60.03613 | 26.98625 | 37040 ft | 389 kts | 279° |
| 2026-05-06 12:46 | 60.04053 | 26.93320 | 37016 ft | 385 kts | 270° |
| 2026-05-06 12:46 | 60.03943 | 26.88008 | 37022 ft | 382 kts | 259° |
| 2026-05-06 12:47 | 60.03422 | 26.82805 | 37030 ft | 382 kts | 257° |
| 2026-05-06 12:47 | 60.02223 | 26.72431 | 37025 ft | 383 kts | 257° |
| 2026-05-06 12:48 | 60.01025 | 26.62038 | 37020 ft | 384 kts | 257° |
| 2026-05-06 12:48 | 59.99847 | 26.51609 | 37023 ft | 385 kts | 257° |
| 2026-05-06 12:49 | 59.98672 | 26.41160 | 37019 ft | 386 kts | 257° |
| 2026-05-06 12:49 | 59.97489 | 26.30704 | 37021 ft | 386 kts | 257° |
| 2026-05-06 12:50 | 59.96304 | 26.20314 | 37026 ft | 386 kts | 257° |
| 2026-05-06 12:50 | 59.95104 | 26.09853 | 37020 ft | 387 kts | 257° |
| 2026-05-06 12:51 | 59.93891 | 25.99385 | 36978 ft | 387 kts | 256° |
| 2026-05-06 12:51 | 59.92674 | 25.88940 | 37026 ft | 388 kts | 256° |
| 2026-05-06 12:52 | 59.91447 | 25.78475 | 37020 ft | 388 kts | 256° |
| 2026-05-06 12:52 | 59.90209 | 25.67996 | 37023 ft | 388 kts | 256° |
| 2026-05-06 12:53 | 59.88966 | 25.57543 | 37027 ft | 388 kts | 256° |
| 2026-05-06 12:53 | 59.87720 | 25.47143 | 37020 ft | 388 kts | 256° |
| 2026-05-06 12:54 | 59.86459 | 25.36694 | 37019 ft | 388 kts | 256° |
| 2026-05-06 12:54 | 59.85190 | 25.26256 | 37021 ft | 388 kts | 256° |
| 2026-05-06 12:55 | 59.83914 | 25.15828 | 37027 ft | 388 kts | 256° |
| 2026-05-06 12:55 | 59.82628 | 25.05403 | 36978 ft | 389 kts | 255° |
| 2026-05-06 12:56 | 59.81444 | 24.95881 | 37018 ft | 388 kts | 255° |
| 2026-05-06 12:56 | 59.80143 | 24.85464 | 37025 ft | 389 kts | 255° |
| 2026-05-06 12:57 | 59.78831 | 24.75040 | 37022 ft | 389 kts | 255° |
| 2026-05-06 12:57 | 59.77508 | 24.64602 | 37022 ft | 390 kts | 255° |
| 2026-05-06 12:58 | 59.76181 | 24.54188 | 37023 ft | 390 kts | 255° |
| 2026-05-06 12:58 | 59.74846 | 24.43825 | 37021 ft | 390 kts | 254° |
| 2026-05-06 12:59 | 59.73326 | 24.33507 | 37022 ft | 390 kts | 253° |
| 2026-05-06 12:59 | 59.71732 | 24.23235 | 37039 ft | 390 kts | 252° |
| 2026-05-06 13:00 | 59.70142 | 24.12950 | 37015 ft | 390 kts | 252° |
| 2026-05-06 13:00 | 59.68559 | 24.02675 | 37021 ft | 390 kts | 252° |
| 2026-05-06 13:01 | 59.66975 | 23.92405 | 37026 ft | 390 kts | 252° |
| 2026-05-06 13:01 | 59.65380 | 23.82130 | 37023 ft | 391 kts | 252° |
| 2026-05-06 13:02 | 59.63774 | 23.71842 | 37021 ft | 391 kts | 252° |
| 2026-05-06 13:02 | 59.62160 | 23.61574 | 37022 ft | 392 kts | 252° |
| 2026-05-06 13:03 | 59.60545 | 23.51357 | 37029 ft | 392 kts | 252° |
| 2026-05-06 13:03 | 59.58915 | 23.41096 | 37059 ft | 392 kts | 252° |
| 2026-05-06 13:04 | 59.57274 | 23.30829 | 37042 ft | 392 kts | 252° |
| 2026-05-06 13:04 | 59.55626 | 23.20579 | 37036 ft | 392 kts | 252° |
| 2026-05-06 13:05 | 59.53630 | 23.10610 | 37047 ft | 391 kts | 245° |
| 2026-05-06 13:05 | 59.51273 | 23.00951 | 37046 ft | 391 kts | 245° |
| 2026-05-06 13:06 | 59.48911 | 22.91309 | 37040 ft | 391 kts | 245° |
| 2026-05-06 13:06 | 59.46561 | 22.81664 | 37040 ft | 391 kts | 245° |
| 2026-05-06 13:07 | 59.44214 | 22.72028 | 37039 ft | 391 kts | 245° |
| 2026-05-06 13:07 | 59.41863 | 22.62402 | 37047 ft | 391 kts | 245° |
| 2026-05-06 13:08 | 59.39505 | 22.52791 | 37069 ft | 391 kts | 245° |
| 2026-05-06 13:08 | 59.37154 | 22.43249 | 37044 ft | 391 kts | 244° |
| 2026-05-06 13:09 | 59.34776 | 22.33639 | 37050 ft | 391 kts | 244° |
| 2026-05-06 13:09 | 59.32391 | 22.24042 | 37043 ft | 392 kts | 244° |
| 2026-05-06 13:10 | 59.29996 | 22.14449 | 37038 ft | 392 kts | 244° |
| 2026-05-06 13:10 | 59.27593 | 22.04866 | 37043 ft | 392 kts | 244° |
| 2026-05-06 13:11 | 59.25182 | 21.95291 | 37042 ft | 393 kts | 244° |
| 2026-05-06 13:11 | 59.22763 | 21.85725 | 37040 ft | 393 kts | 244° |
| 2026-05-06 13:12 | 59.20337 | 21.76172 | 37008 ft | 393 kts | 244° |
| 2026-05-06 13:12 | 59.17904 | 21.66633 | 37032 ft | 393 kts | 243° |
| 2026-05-06 13:13 | 59.15475 | 21.57153 | 37044 ft | 394 kts | 243° |
| 2026-05-06 13:13 | 59.13019 | 21.47602 | 37042 ft | 394 kts | 243° |
| 2026-05-06 13:14 | 59.10554 | 21.38057 | 37040 ft | 395 kts | 243° |
| 2026-05-06 13:14 | 59.08080 | 21.28515 | 37037 ft | 395 kts | 243° |
| 2026-05-06 13:15 | 59.05024 | 21.19731 | 37056 ft | 397 kts | 225° |
| 2026-05-06 13:15 | 59.00442 | 21.13647 | 36999 ft | 407 kts | 206° |
| 2026-05-06 13:16 | 58.95044 | 21.10138 | 37040 ft | 410 kts | 203° |
| 2026-05-06 13:16 | 58.89605 | 21.06739 | 37029 ft | 411 kts | 204° |
| 2026-05-06 13:17 | 58.84165 | 21.03305 | 37034 ft | 411 kts | 204° |
| 2026-05-06 13:17 | 58.78763 | 20.99869 | 37031 ft | 411 kts | 204° |
| 2026-05-06 13:18 | 58.73325 | 20.96409 | 37010 ft | 411 kts | 203° |
| 2026-05-06 13:18 | 58.67887 | 20.92958 | 37022 ft | 411 kts | 203° |
| 2026-05-06 13:19 | 58.62455 | 20.89522 | 37033 ft | 411 kts | 203° |
| 2026-05-06 13:19 | 58.57022 | 20.86097 | 37025 ft | 411 kts | 203° |
| 2026-05-06 13:20 | 58.51588 | 20.82682 | 37020 ft | 411 kts | 203° |
| 2026-05-06 13:20 | 58.47076 | 20.79856 | 36995 ft | 411 kts | 202° |
| 2026-05-06 13:21 | 58.41648 | 20.76467 | 37005 ft | 410 kts | 202° |
| 2026-05-06 13:21 | 58.36222 | 20.73088 | 37020 ft | 410 kts | 202° |
| 2026-05-06 13:22 | 58.30793 | 20.69718 | 37021 ft | 410 kts | 202° |
| 2026-05-06 13:22 | 58.25362 | 20.66359 | 37018 ft | 410 kts | 202° |
| 2026-05-06 13:23 | 58.19929 | 20.63009 | 36987 ft | 410 kts | 202° |
| 2026-05-06 13:23 | 58.14502 | 20.59674 | 37001 ft | 410 kts | 202° |
| 2026-05-06 13:24 | 58.09073 | 20.56349 | 37012 ft | 410 kts | 202° |
| 2026-05-06 13:24 | 58.03678 | 20.53054 | 37006 ft | 410 kts | 202° |
| 2026-05-06 13:25 | 57.98242 | 20.49745 | 37005 ft | 411 kts | 202° |
| 2026-05-06 13:25 | 57.92803 | 20.46444 | 36982 ft | 411 kts | 201° |
| 2026-05-06 13:26 | 57.87353 | 20.43148 | 36999 ft | 411 kts | 201° |
| 2026-05-06 13:26 | 57.81911 | 20.39866 | 36997 ft | 411 kts | 201° |
| 2026-05-06 13:27 | 57.76469 | 20.36596 | 36998 ft | 411 kts | 201° |
| 2026-05-06 13:27 | 57.71017 | 20.33330 | 36989 ft | 411 kts | 201° |
| 2026-05-06 13:28 | 57.65563 | 20.30073 | 36979 ft | 411 kts | 201° |
| 2026-05-06 13:28 | 57.60103 | 20.26822 | 36984 ft | 411 kts | 201° |
| 2026-05-06 13:29 | 57.54675 | 20.23601 | 36983 ft | 412 kts | 201° |
| 2026-05-06 13:29 | 57.49211 | 20.20369 | 36976 ft | 411 kts | 201° |
| 2026-05-06 13:30 | 57.43757 | 20.17151 | 36976 ft | 411 kts | 201° |
| 2026-05-06 13:30 | 57.38298 | 20.13941 | 36961 ft | 411 kts | 200° |
| 2026-05-06 13:31 | 57.32852 | 20.10750 | 36971 ft | 411 kts | 200° |
| 2026-05-06 13:31 | 57.27398 | 20.07563 | 36973 ft | 411 kts | 200° |
| 2026-05-06 13:32 | 57.21971 | 20.04401 | 36977 ft | 411 kts | 200° |
| 2026-05-06 13:32 | 57.16510 | 20.01231 | 36968 ft | 411 kts | 200° |
| 2026-05-06 13:33 | 57.11049 | 19.98068 | 36965 ft | 411 kts | 200° |
| 2026-05-06 13:33 | 57.05588 | 19.94915 | 36963 ft | 411 kts | 200° |
| 2026-05-06 13:34 | 57.00011 | 19.92489 | 36970 ft | 415 kts | 189° |
| 2026-05-06 13:34 | 56.94191 | 19.92709 | 36962 ft | 422 kts | 178° |
| 2026-05-06 13:35 | 56.88351 | 19.93926 | 36956 ft | 422 kts | 178° |
| 2026-05-06 13:35 | 56.82542 | 19.95119 | 36943 ft | 422 kts | 178° |
| 2026-05-06 13:36 | 56.76702 | 19.96278 | 36951 ft | 422 kts | 178° |
| 2026-05-06 13:36 | 56.70859 | 19.97417 | 36939 ft | 422 kts | 178° |
| 2026-05-06 13:37 | 56.65014 | 19.98551 | 36939 ft | 422 kts | 178° |
| 2026-05-06 13:37 | 56.59174 | 19.99681 | 36934 ft | 422 kts | 178° |
| 2026-05-06 13:38 | 56.53322 | 20.00811 | 36932 ft | 422 kts | 178° |
| 2026-05-06 13:38 | 56.47463 | 20.01937 | 36647 ft | 427 kts | 178° |
| 2026-05-06 13:38 | 56.44501 | 20.02504 | 36172 ft | 427 kts | 178° |
| 2026-05-06 13:39 | 56.41556 | 20.03070 | 35580 ft | 425 kts | 177° |
| 2026-05-06 13:39 | 56.38619 | 20.03633 | 34931 ft | 424 kts | 177° |
| 2026-05-06 13:39 | 56.35686 | 20.04195 | 34294 ft | 424 kts | 177° |
| 2026-05-06 13:39 | 56.32794 | 20.04746 | 33611 ft | 423 kts | 176° |
| 2026-05-06 13:40 | 56.29865 | 20.05305 | 32887 ft | 423 kts | 176° |
| 2026-05-06 13:40 | 56.26938 | 20.05862 | 32165 ft | 423 kts | 176° |
| 2026-05-06 13:40 | 56.24011 | 20.06418 | 31441 ft | 423 kts | 176° |
| 2026-05-06 13:40 | 56.21072 | 20.06975 | 30713 ft | 424 kts | 176° |
| 2026-05-06 13:41 | 56.18139 | 20.07530 | 29972 ft | 426 kts | 176° |
| 2026-05-06 13:41 | 56.15187 | 20.08177 | 29096 ft | 428 kts | 172° |
| 2026-05-06 13:41 | 56.12306 | 20.09497 | 28299 ft | 430 kts | 163° |
| 2026-05-06 13:41 | 56.09487 | 20.11339 | 27470 ft | 431 kts | 163° |
| 2026-05-06 13:42 | 56.06666 | 20.13202 | 26605 ft | 432 kts | 163° |
| 2026-05-06 13:42 | 56.03839 | 20.15056 | 25708 ft | 434 kts | 163° |
| 2026-05-06 13:42 | 56.01045 | 20.16873 | 25115 ft | 429 kts | 163° |
| 2026-05-06 13:42 | 55.98235 | 20.18688 | 24580 ft | 420 kts | 163° |
| 2026-05-06 13:43 | 55.95480 | 20.20455 | 23859 ft | 420 kts | 164° |
| 2026-05-06 13:43 | 55.92747 | 20.22195 | 23221 ft | 427 kts | 164° |
| 2026-05-06 13:43 | 55.89924 | 20.23985 | 22488 ft | 431 kts | 164° |
| 2026-05-06 13:43 | 55.87120 | 20.25765 | 21821 ft | 424 kts | 164° |
| 2026-05-06 13:44 | 55.84365 | 20.27516 | 21187 ft | 419 kts | 164° |
| 2026-05-06 13:44 | 55.81633 | 20.29249 | 20549 ft | 413 kts | 164° |
| 2026-05-06 13:44 | 55.78945 | 20.30951 | 19921 ft | 409 kts | 164° |
| 2026-05-06 13:44 | 55.76280 | 20.32634 | 19310 ft | 404 kts | 165° |
| 2026-05-06 13:45 | 55.73640 | 20.34298 | 18701 ft | 401 kts | 165° |
| 2026-05-06 13:45 | 55.68425 | 20.37578 | 17418 ft | 394 kts | 164° |
| 2026-05-06 13:45 | 55.65847 | 20.39196 | 16768 ft | 392 kts | 165° |
| 2026-05-06 13:46 | 55.63289 | 20.40800 | 16149 ft | 388 kts | 165° |
| 2026-05-06 13:46 | 55.60754 | 20.42387 | 15560 ft | 385 kts | 165° |
| 2026-05-06 13:46 | 55.58242 | 20.43958 | 14975 ft | 381 kts | 165° |
| 2026-05-06 13:46 | 55.55753 | 20.45512 | 14390 ft | 378 kts | 165° |
| 2026-05-06 13:47 | 55.53282 | 20.47053 | 13791 ft | 375 kts | 165° |
| 2026-05-06 13:47 | 55.50826 | 20.48581 | 13160 ft | 373 kts | 165° |
| 2026-05-06 13:47 | 55.48385 | 20.50099 | 12531 ft | 371 kts | 165° |
| 2026-05-06 13:47 | 55.45961 | 20.51605 | 11917 ft | 368 kts | 165° |
| 2026-05-06 13:48 | 55.43570 | 20.53090 | 11633 ft | 357 kts | 165° |
| 2026-05-06 13:48 | 55.41268 | 20.54507 | 11452 ft | 343 kts | 166° |
| 2026-05-06 13:48 | 55.39028 | 20.55402 | 11324 ft | 327 kts | 176° |
| 2026-05-06 13:48 | 55.36804 | 20.55618 | 11180 ft | 314 kts | 182° |
| 2026-05-06 13:49 | 55.34652 | 20.55754 | 11058 ft | 305 kts | 181° |
| 2026-05-06 13:49 | 55.32556 | 20.55906 | 10923 ft | 297 kts | 181° |
| 2026-05-06 13:49 | 55.30512 | 20.56109 | 10725 ft | 292 kts | 178° |
| 2026-05-06 13:49 | 55.28508 | 20.56542 | 10472 ft | 289 kts | 176° |
| 2026-05-06 13:50 | 55.26532 | 20.57046 | 10221 ft | 285 kts | 175° |
| 2026-05-06 13:50 | 55.24580 | 20.57552 | 9967 ft | 282 kts | 175° |
| 2026-05-06 13:50 | 55.22658 | 20.58043 | 9812 ft | 274 kts | 176° |
| 2026-05-06 13:50 | 55.20840 | 20.58502 | 9762 ft | 263 kts | 176° |
| 2026-05-06 13:51 | 55.18992 | 20.58957 | 9278 ft | 268 kts | 176° |
| 2026-05-06 13:51 | 55.17137 | 20.59409 | 8957 ft | 268 kts | 176° |
| 2026-05-06 13:51 | 55.15300 | 20.59857 | 8699 ft | 265 kts | 176° |
| 2026-05-06 13:51 | 55.13485 | 20.60298 | 8456 ft | 262 kts | 176° |
| 2026-05-06 13:52 | 55.11694 | 20.60732 | 8209 ft | 258 kts | 176° |
| 2026-05-06 13:52 | 55.09926 | 20.61159 | 7976 ft | 254 kts | 176° |
| 2026-05-06 13:52 | 55.08187 | 20.61579 | 7742 ft | 251 kts | 176° |
| 2026-05-06 13:52 | 55.06471 | 20.61991 | 7529 ft | 248 kts | 176° |
| 2026-05-06 13:53 | 55.04768 | 20.62400 | 7303 ft | 247 kts | 176° |
| 2026-05-06 13:53 | 55.03071 | 20.62715 | 7063 ft | 243 kts | 186° |
| 2026-05-06 13:53 | 55.01491 | 20.61879 | 6862 ft | 238 kts | 212° |
| 2026-05-06 13:53 | 55.00246 | 20.60012 | 6657 ft | 238 kts | 231° |
| 2026-05-06 13:54 | 54.99419 | 20.57506 | 6451 ft | 240 kts | 242° |
| 2026-05-06 13:54 | 54.98732 | 20.54814 | 6227 ft | 245 kts | 243° |
| 2026-05-06 13:54 | 54.98046 | 20.52088 | 5990 ft | 246 kts | 243° |
| 2026-05-06 13:54 | 54.97353 | 20.49372 | 5747 ft | 245 kts | 243° |
| 2026-05-06 13:55 | 54.96657 | 20.46671 | 5520 ft | 244 kts | 242° |
| 2026-05-06 13:55 | 54.95972 | 20.44021 | 5298 ft | 243 kts | 242° |
| 2026-05-06 13:55 | 54.95281 | 20.41356 | 5076 ft | 242 kts | 242° |
| 2026-05-06 13:55 | 54.94591 | 20.38698 | 4842 ft | 241 kts | 242° |
| 2026-05-06 13:56 | 54.93903 | 20.36056 | 4629 ft | 239 kts | 242° |
| 2026-05-06 13:56 | 54.93213 | 20.33418 | 4415 ft | 240 kts | 242° |
| 2026-05-06 13:56 | 54.92521 | 20.30773 | 4325 ft | 241 kts | 242° |
| 2026-05-06 13:56 | 54.91760 | 20.28163 | 4111 ft | 242 kts | 229° |
| 2026-05-06 13:57 | 54.90453 | 20.26401 | 3907 ft | 239 kts | 198° |
| 2026-05-06 13:57 | 54.88824 | 20.25913 | 3700 ft | 239 kts | 175° |
| 2026-05-06 13:57 | 54.87240 | 20.26570 | 3489 ft | 232 kts | 156° |
| 2026-05-06 13:57 | 54.85772 | 20.27695 | 3272 ft | 231 kts | 156° |
| 2026-05-06 13:58 | 54.84318 | 20.28860 | 3047 ft | 229 kts | 156° |
| 2026-05-06 13:58 | 54.82996 | 20.30340 | 2835 ft | 226 kts | 130° |
| 2026-05-06 13:58 | 54.82397 | 20.32743 | 2710 ft | 217 kts | 95° |
| 2026-05-06 13:58 | 54.82671 | 20.35219 | 2615 ft | 204 kts | 72° |
| 2026-05-06 13:59 | 54.83249 | 20.37342 | 2498 ft | 185 kts | 68° |
| 2026-05-06 13:59 | 54.83805 | 20.39225 | 2366 ft | 166 kts | 67° |
| 2026-05-06 13:59 | 54.84285 | 20.40952 | 2167 ft | 152 kts | 70° |
| 2026-05-06 13:59 | 54.84703 | 20.42555 | 1981 ft | 139 kts | 69° |
| 2026-05-06 14:00 | 54.85076 | 20.43990 | 1822 ft | 127 kts | 69° |
| 2026-05-06 14:00 | 54.85432 | 20.45380 | 1648 ft | 125 kts | 68° |
| 2026-05-06 14:00 | 54.85787 | 20.46772 | 1454 ft | 128 kts | 67° |
| 2026-05-06 14:00 | 54.86154 | 20.48195 | 1278 ft | 131 kts | 66° |
| 2026-05-06 14:01 | 54.86528 | 20.49647 | 1096 ft | 133 kts | 65° |
| 2026-05-06 14:01 | 54.86911 | 20.51136 | 881 ft | 137 kts | 66° |
| 2026-05-06 14:01 | 54.87294 | 20.52644 | 751 ft | 137 kts | 66° |
| 2026-05-06 14:01 | 54.87696 | 20.54184 | 494 ft | 142 kts | 64° |
| 2026-05-06 14:02 | 54.88099 | 20.55765 | 294 ft | 142 kts | 64° |
| 2026-05-06 14:02 | 54.88513 | 20.57340 | 96 ft | 145 kts | 64° |
| 2026-05-06 14:02 | 54.88915 | 20.58913 | 21 ft | 133 kts | 66° |
| 2026-05-06 14:02 | 54.89248 | 20.60150 | 21 ft | 97 kts | 63° |
| 2026-05-06 14:03 | 54.89485 | 20.60990 | 19 ft | 21 kts | 62° |
| 2026-05-06 14:03 | 54.89486 | 20.61056 | 19 ft | 3 kts | 185° |